sensor_id;sensor_type;location;lat;lon;timestamp;P1;durP1;ratioP1;P2;durP2;ratioP2
489;SDS011;231;48.120;11.576;2024-01-15T02:24:58;12.83;;;9.97;;
489;SDS011;231;48.120;11.576;2024-01-15T02:27:25;12.70;;;11.23;;
489;SDS011;231;48.120;11.576;2024-01-15T02:29:52;20.70;;;13.20;;
489;SDS011;231;48.120;11.576;2024-01-15T02:32:19;14.37;;;11.97;;
489;SDS011;231;48.120;11.576;2024-01-15T02:34:46;15.20;;;12.30;;
489;SDS011;231;48.120;11.576;2024-01-15T02:37:13;15.97;;;12.60;;
489;SDS011;231;48.120;11.576;2024-01-15T02:39:40;15.17;;;12.93;;
489;SDS011;231;48.120;11.576;2024-01-15T02:42:08;14.73;;;12.50;;
489;SDS011;231;48.120;11.576;2024-01-15T02:44:35;14.00;;;13.30;;
489;SDS011;231;48.120;11.576;2024-01-15T02:47:01;14.93;;;12.43;;
489;SDS011;231;48.120;11.576;2024-01-15T02:49:28;15.77;;;13.23;;
489;SDS011;231;48.120;11.576;2024-01-15T02:51:57;14.50;;;12.40;;
489;SDS011;231;48.120;11.576;2024-01-15T02:54:24;14.37;;;12.53;;
489;SDS011;231;48.120;11.576;2024-01-15T02:56:51;15.37;;;12.20;;
489;SDS011;231;48.120;11.576;2024-01-15T02:59:19;14.20;;;12.47;;
489;SDS011;231;48.120;11.576;2024-01-15T03:01:46;17.10;;;13.77;;
489;SDS011;231;48.120;11.576;2024-01-15T03:04:13;12.33;;;11.17;;
489;SDS011;231;48.120;11.576;2024-01-15T03:06:40;14.23;;;12.70;;
489;SDS011;231;48.120;11.576;2024-01-15T03:09:08;17.33;;;13.53;;
489;SDS011;231;48.120;11.576;2024-01-15T03:11:36;15.67;;;11.87;;
489;SDS011;231;48.120;11.576;2024-01-15T03:14:04;14.53;;;11.10;;
489;SDS011;231;48.120;11.576;2024-01-15T03:16:32;13.57;;;11.07;;
489;SDS011;231;48.120;11.576;2024-01-15T03:18:59;12.70;;;10.20;;
489;SDS011;231;48.120;11.576;2024-01-15T03:21:26;12.53;;;10.20;;
489;SDS011;231;48.120;11.576;2024-01-15T03:23:53;12.67;;;10.00;;
489;SDS011;231;48.120;11.576;2024-01-15T03:26:19;10.97;;;10.27;;
489;SDS011;231;48.120;11.576;2024-01-15T03:28:46;12.20;;;9.73;;
489;SDS011;231;48.120;11.576;2024-01-15T03:31:13;15.93;;;12.40;;
489;SDS011;231;48.120;11.576;2024-01-15T03:33:42;12.83;;;10.67;;
489;SDS011;231;48.120;11.576;2024-01-15T03:36:09;11.93;;;9.77;;
489;SDS011;231;48.120;11.576;2024-01-15T03:38:39;12.40;;;10.00;;
489;SDS011;231;48.120;11.576;2024-01-15T10:23:32;6.13;;;5.73;;
489;SDS011;231;48.120;11.576;2024-01-15T10:26:14;8.20;;;6.77;;
489;SDS011;231;48.120;11.576;2024-01-15T10:29:25;5.67;;;5.40;;
489;SDS011;231;48.120;11.576;2024-01-15T10:31:53;6.50;;;5.57;;
489;SDS011;231;48.120;11.576;2024-01-15T10:34:57;5.90;;;5.00;;
489;SDS011;231;48.120;11.576;2024-01-15T11:00:09;3.87;;;3.67;;
489;SDS011;231;48.120;11.576;2024-01-15T11:03:08;4.23;;;3.97;;
489;SDS011;231;48.120;11.576;2024-01-15T11:09:10;5.60;;;5.00;;
489;SDS011;231;48.120;11.576;2024-01-15T11:11:43;4.93;;;4.60;;
489;SDS011;231;48.120;11.576;2024-01-15T11:20:31;4.27;;;4.00;;
489;SDS011;231;48.120;11.576;2024-01-15T11:22:59;6.80;;;5.07;;
489;SDS011;231;48.120;11.576;2024-01-15T11:25:34;6.93;;;4.80;;
489;SDS011;231;48.120;11.576;2024-01-15T11:28:03;7.53;;;6.20;;
489;SDS011;231;48.120;11.576;2024-01-15T11:30:37;5.00;;;4.70;;
489;SDS011;231;48.120;11.576;2024-01-15T11:33:08;6.43;;;4.00;;
489;SDS011;231;48.120;11.576;2024-01-15T11:35:58;3.83;;;3.53;;
489;SDS011;231;48.120;11.576;2024-01-15T11:38:28;4.33;;;3.40;;
489;SDS011;231;48.120;11.576;2024-01-15T11:40:55;4.00;;;3.90;;
489;SDS011;231;48.120;11.576;2024-01-15T11:43:24;4.77;;;4.47;;
489;SDS011;231;48.120;11.576;2024-01-15T11:45:52;3.30;;;3.10;;
489;SDS011;231;48.120;11.576;2024-01-15T11:48:21;4.70;;;3.57;;
489;SDS011;231;48.120;11.576;2024-01-15T11:50:49;6.00;;;5.00;;
489;SDS011;231;48.120;11.576;2024-01-15T11:53:17;6.00;;;5.10;;
489;SDS011;231;48.120;11.576;2024-01-15T11:55:53;4.63;;;4.20;;
489;SDS011;231;48.120;11.576;2024-01-15T11:58:25;3.60;;;3.40;;
489;SDS011;231;48.120;11.576;2024-01-15T12:00:52;4.40;;;4.10;;
489;SDS011;231;48.120;11.576;2024-01-15T12:03:21;3.20;;;3.00;;
489;SDS011;231;48.120;11.576;2024-01-15T12:05:48;7.77;;;5.87;;
489;SDS011;231;48.120;11.576;2024-01-15T12:08:14;5.00;;;3.93;;
489;SDS011;231;48.120;11.576;2024-01-15T12:10:48;5.90;;;4.73;;
489;SDS011;231;48.120;11.576;2024-01-15T12:13:16;4.33;;;4.03;;
489;SDS011;231;48.120;11.576;2024-01-15T12:15:44;5.10;;;3.70;;
489;SDS011;231;48.120;11.576;2024-01-15T12:18:12;4.50;;;4.20;;
489;SDS011;231;48.120;11.576;2024-01-15T12:20:42;4.73;;;3.30;;
489;SDS011;231;48.120;11.576;2024-01-15T12:23:11;3.87;;;3.67;;
489;SDS011;231;48.120;11.576;2024-01-15T12:25:39;4.67;;;4.37;;
489;SDS011;231;48.120;11.576;2024-01-15T12:28:07;5.80;;;3.73;;
489;SDS011;231;48.120;11.576;2024-01-15T12:30:34;3.60;;;3.40;;
489;SDS011;231;48.120;11.576;2024-01-15T12:33:06;4.10;;;3.80;;
489;SDS011;231;48.120;11.576;2024-01-15T12:35:34;3.90;;;3.37;;
489;SDS011;231;48.120;11.576;2024-01-15T12:38:03;4.07;;;3.70;;
489;SDS011;231;48.120;11.576;2024-01-15T12:40:31;3.87;;;3.67;;
489;SDS011;231;48.120;11.576;2024-01-15T12:42:59;3.57;;;3.00;;
489;SDS011;231;48.120;11.576;2024-01-15T12:45:29;4.50;;;4.20;;
489;SDS011;231;48.120;11.576;2024-01-15T12:47:56;3.57;;;3.37;;
489;SDS011;231;48.120;11.576;2024-01-15T12:50:25;4.33;;;3.63;;
489;SDS011;231;48.120;11.576;2024-01-15T12:52:52;3.73;;;3.53;;
489;SDS011;231;48.120;11.576;2024-01-15T12:55:21;2.83;;;2.63;;
489;SDS011;231;48.120;11.576;2024-01-15T12:57:48;3.80;;;3.60;;
489;SDS011;231;48.120;11.576;2024-01-15T13:00:19;5.43;;;4.20;;
489;SDS011;231;48.120;11.576;2024-01-15T13:02:49;4.50;;;4.20;;
489;SDS011;231;48.120;11.576;2024-01-15T13:05:16;6.20;;;4.80;;
489;SDS011;231;48.120;11.576;2024-01-15T13:07:44;7.37;;;3.60;;
489;SDS011;231;48.120;11.576;2024-01-15T13:10:12;4.33;;;4.03;;
489;SDS011;231;48.120;11.576;2024-01-15T13:28:28;7.30;;;4.73;;
489;SDS011;231;48.120;11.576;2024-01-15T13:30:58;3.80;;;3.60;;
489;SDS011;231;48.120;11.576;2024-01-15T14:07:25;1.67;;;1.58;;
489;SDS011;231;48.120;11.576;2024-01-15T14:10:57;2.80;;;2.60;;
489;SDS011;231;48.120;11.576;2024-01-15T14:14:59;2.13;;;1.98;;
489;SDS011;231;48.120;11.576;2024-01-15T14:17:57;3.50;;;3.30;;
489;SDS011;231;48.120;11.576;2024-01-15T14:48:08;3.38;;;3.17;;
489;SDS011;231;48.120;11.576;2024-01-15T14:51:04;2.33;;;2.13;;
489;SDS011;231;48.120;11.576;2024-01-15T14:54:06;4.05;;;3.83;;
489;SDS011;231;48.120;11.576;2024-01-15T14:56:55;2.75;;;2.55;;
489;SDS011;231;48.120;11.576;2024-01-15T14:59:40;2.53;;;2.33;;
489;SDS011;231;48.120;11.576;2024-01-15T15:02:28;2.80;;;2.60;;
489;SDS011;231;48.120;11.576;2024-01-15T15:05:09;2.40;;;2.20;;
489;SDS011;231;48.120;11.576;2024-01-15T15:08:18;2.38;;;2.17;;
489;SDS011;231;48.120;11.576;2024-01-15T15:11:14;3.20;;;3.00;;
489;SDS011;231;48.120;11.576;2024-01-15T15:14:03;1.80;;;1.70;;
489;SDS011;231;48.120;11.576;2024-01-15T15:19:40;1.73;;;1.63;;
489;SDS011;231;48.120;11.576;2024-01-15T15:22:22;3.15;;;2.95;;
489;SDS011;231;48.120;11.576;2024-01-15T15:25:06;1.70;;;1.60;;
489;SDS011;231;48.120;11.576;2024-01-15T15:27:39;2.15;;;1.98;;
489;SDS011;231;48.120;11.576;2024-01-15T15:30:06;2.83;;;2.63;;
489;SDS011;231;48.120;11.576;2024-01-15T15:32:34;2.55;;;2.35;;
489;SDS011;231;48.120;11.576;2024-01-15T15:35:03;4.00;;;3.80;;
489;SDS011;231;48.120;11.576;2024-01-15T15:37:32;2.72;;;2.53;;
489;SDS011;231;48.120;11.576;2024-01-15T15:40:00;3.33;;;3.13;;
489;SDS011;231;48.120;11.576;2024-01-15T15:42:33;1.63;;;1.52;;
489;SDS011;231;48.120;11.576;2024-01-15T15:45:01;5.25;;;4.95;;
489;SDS011;231;48.120;11.576;2024-01-15T15:47:28;3.17;;;2.97;;
489;SDS011;231;48.120;11.576;2024-01-15T15:49:55;3.00;;;2.80;;
489;SDS011;231;48.120;11.576;2024-01-15T15:52:22;3.20;;;3.00;;
489;SDS011;231;48.120;11.576;2024-01-15T15:54:51;3.15;;;2.95;;
489;SDS011;231;48.120;11.576;2024-01-15T15:57:19;2.72;;;2.53;;
489;SDS011;231;48.120;11.576;2024-01-15T15:59:47;2.58;;;2.38;;
489;SDS011;231;48.120;11.576;2024-01-15T16:02:14;3.67;;;3.47;;
489;SDS011;231;48.120;11.576;2024-01-15T16:04:41;1.83;;;1.73;;
489;SDS011;231;48.120;11.576;2024-01-15T16:07:08;2.08;;;1.92;;
489;SDS011;231;48.120;11.576;2024-01-15T16:09:36;3.60;;;3.40;;
489;SDS011;231;48.120;11.576;2024-01-15T16:12:06;3.15;;;2.95;;
489;SDS011;231;48.120;11.576;2024-01-15T16:14:34;4.50;;;4.20;;
489;SDS011;231;48.120;11.576;2024-01-15T16:17:01;2.13;;;1.98;;
489;SDS011;231;48.120;11.576;2024-01-15T16:19:28;3.45;;;3.25;;
489;SDS011;231;48.120;11.576;2024-01-15T16:21:55;3.92;;;3.70;;
489;SDS011;231;48.120;11.576;2024-01-15T16:24:22;5.57;;;5.28;;
489;SDS011;231;48.120;11.576;2024-01-15T16:26:50;2.70;;;2.50;;
489;SDS011;231;48.120;11.576;2024-01-15T16:29:18;1.10;;;1.00;;
489;SDS011;231;48.120;11.576;2024-01-15T16:31:48;2.78;;;2.58;;
489;SDS011;231;48.120;11.576;2024-01-15T16:34:14;2.58;;;2.38;;
489;SDS011;231;48.120;11.576;2024-01-15T16:36:42;2.67;;;2.47;;
489;SDS011;231;48.120;11.576;2024-01-15T16:39:08;1.65;;;1.55;;
489;SDS011;231;48.120;11.576;2024-01-15T16:41:35;3.75;;;3.55;;
489;SDS011;231;48.120;11.576;2024-01-15T16:44:03;2.28;;;2.08;;
489;SDS011;231;48.120;11.576;2024-01-15T16:46:31;2.88;;;2.67;;
489;SDS011;231;48.120;11.576;2024-01-15T16:48:58;4.75;;;4.45;;
489;SDS011;231;48.120;11.576;2024-01-15T16:51:27;2.95;;;2.75;;
489;SDS011;231;48.120;11.576;2024-01-15T16:53:54;4.32;;;4.07;;
489;SDS011;231;48.120;11.576;2024-01-15T16:56:21;2.45;;;2.25;;
489;SDS011;231;48.120;11.576;2024-01-15T16:58:47;4.35;;;4.10;;
489;SDS011;231;48.120;11.576;2024-01-15T17:01:14;3.63;;;3.42;;
489;SDS011;231;48.120;11.576;2024-01-15T17:03:43;3.75;;;3.55;;
489;SDS011;231;48.120;11.576;2024-01-15T17:06:10;4.82;;;4.55;;
489;SDS011;231;48.120;11.576;2024-01-15T17:08:38;3.70;;;3.50;;
489;SDS011;231;48.120;11.576;2024-01-15T17:11:05;3.30;;;3.10;;
489;SDS011;231;48.120;11.576;2024-01-15T17:13:32;2.47;;;2.28;;
489;SDS011;231;48.120;11.576;2024-01-15T17:15:59;4.45;;;4.18;;
489;SDS011;231;48.120;11.576;2024-01-15T17:18:26;1.35;;;1.25;;
489;SDS011;231;48.120;11.576;2024-01-15T17:20:55;3.47;;;3.28;;
489;SDS011;231;48.120;11.576;2024-01-15T17:23:22;6.93;;;6.55;;
489;SDS011;231;48.120;11.576;2024-01-15T17:25:51;2.20;;;2.00;;
489;SDS011;231;48.120;11.576;2024-01-15T17:28:18;2.40;;;2.20;;
489;SDS011;231;48.120;11.576;2024-01-15T17:30:46;2.90;;;2.70;;
489;SDS011;231;48.120;11.576;2024-01-15T17:33:14;3.95;;;3.72;;
489;SDS011;231;48.120;11.576;2024-01-15T17:35:44;4.25;;;4.00;;
489;SDS011;231;48.120;11.576;2024-01-15T17:38:18;3.20;;;3.00;;
489;SDS011;231;48.120;11.576;2024-01-15T17:40:45;1.45;;;1.35;;
489;SDS011;231;48.120;11.576;2024-01-15T17:43:14;2.85;;;2.65;;
489;SDS011;231;48.120;11.576;2024-01-15T17:45:41;2.33;;;2.15;;
489;SDS011;231;48.120;11.576;2024-01-15T17:48:08;2.67;;;2.47;;
489;SDS011;231;48.120;11.576;2024-01-15T17:50:35;2.78;;;2.58;;
489;SDS011;231;48.120;11.576;2024-01-15T17:53:03;1.60;;;1.50;;
489;SDS011;231;48.120;11.576;2024-01-15T17:55:32;3.70;;;3.50;;
489;SDS011;231;48.120;11.576;2024-01-15T17:57:59;2.30;;;2.10;;
489;SDS011;231;48.120;11.576;2024-01-15T18:00:28;2.53;;;2.33;;
489;SDS011;231;48.120;11.576;2024-01-15T18:02:55;1.50;;;1.40;;
489;SDS011;231;48.120;11.576;2024-01-15T18:05:22;3.70;;;3.50;;
489;SDS011;231;48.120;11.576;2024-01-15T18:07:49;2.17;;;2.00;;
489;SDS011;231;48.120;11.576;2024-01-15T18:10:16;4.28;;;4.03;;
489;SDS011;231;48.120;11.576;2024-01-15T18:12:47;3.53;;;3.33;;
489;SDS011;231;48.120;11.576;2024-01-15T18:15:14;2.78;;;2.58;;
489;SDS011;231;48.120;11.576;2024-01-15T18:17:41;2.10;;;1.95;;
489;SDS011;231;48.120;11.576;2024-01-15T18:20:08;5.00;;;4.70;;
489;SDS011;231;48.120;11.576;2024-01-15T18:22:37;2.28;;;2.10;;
489;SDS011;231;48.120;11.576;2024-01-15T18:25:04;3.83;;;3.63;;
489;SDS011;231;48.120;11.576;2024-01-15T18:27:33;4.47;;;4.18;;
489;SDS011;231;48.120;11.576;2024-01-15T18:30:02;3.80;;;3.58;;
489;SDS011;231;48.120;11.576;2024-01-15T18:32:30;5.43;;;5.13;;
489;SDS011;231;48.120;11.576;2024-01-15T18:34:58;2.92;;;2.72;;
489;SDS011;231;48.120;11.576;2024-01-15T18:37:25;1.98;;;1.85;;
489;SDS011;231;48.120;11.576;2024-01-15T18:39:53;2.42;;;2.22;;
489;SDS011;231;48.120;11.576;2024-01-15T18:42:20;3.20;;;3.00;;
489;SDS011;231;48.120;11.576;2024-01-15T18:44:47;2.00;;;1.90;;
489;SDS011;231;48.120;11.576;2024-01-15T18:47:16;5.88;;;5.57;;
489;SDS011;231;48.120;11.576;2024-01-15T18:49:44;3.35;;;3.15;;
489;SDS011;231;48.120;11.576;2024-01-15T18:52:11;2.47;;;2.28;;
489;SDS011;231;48.120;11.576;2024-01-15T18:54:39;2.15;;;2.00;;
489;SDS011;231;48.120;11.576;2024-01-15T18:57:07;2.10;;;1.95;;
489;SDS011;231;48.120;11.576;2024-01-15T18:59:34;3.20;;;3.00;;
489;SDS011;231;48.120;11.576;2024-01-15T19:02:02;6.15;;;5.82;;
489;SDS011;231;48.120;11.576;2024-01-15T19:04:30;3.50;;;3.30;;
489;SDS011;231;48.120;11.576;2024-01-15T19:06:57;2.45;;;2.25;;
489;SDS011;231;48.120;11.576;2024-01-15T19:09:26;3.03;;;2.83;;
489;SDS011;231;48.120;11.576;2024-01-15T19:11:53;3.95;;;3.72;;
489;SDS011;231;48.120;11.576;2024-01-15T19:17:09;2.30;;;2.10;;
489;SDS011;231;48.120;11.576;2024-01-15T22:26:36;3.80;;;3.60;;
489;SDS011;231;48.120;11.576;2024-01-15T22:29:03;5.30;;;5.00;;
489;SDS011;231;48.120;11.576;2024-01-15T22:31:31;4.82;;;4.53;;
489;SDS011;231;48.120;11.576;2024-01-15T22:33:58;6.18;;;5.85;;
489;SDS011;231;48.120;11.576;2024-01-15T22:36:25;4.68;;;4.38;;
489;SDS011;231;48.120;11.576;2024-01-15T22:38:51;4.75;;;4.45;;
489;SDS011;231;48.120;11.576;2024-01-15T22:41:18;2.90;;;2.70;;
489;SDS011;231;48.120;11.576;2024-01-15T22:43:47;4.60;;;4.30;;
489;SDS011;231;48.120;11.576;2024-01-15T22:46:13;3.72;;;3.53;;
489;SDS011;231;48.120;11.576;2024-01-15T22:48:40;2.80;;;2.60;;
489;SDS011;231;48.120;11.576;2024-01-15T22:51:07;4.75;;;4.45;;
489;SDS011;231;48.120;11.576;2024-01-15T22:53:34;4.57;;;4.28;;
489;SDS011;231;48.120;11.576;2024-01-15T22:56:10;3.50;;;3.30;;
489;SDS011;231;48.120;11.576;2024-01-15T22:58:37;2.72;;;2.53;;
489;SDS011;231;48.120;11.576;2024-01-15T23:01:05;5.20;;;4.90;;
489;SDS011;231;48.120;11.576;2024-01-15T23:03:32;3.47;;;3.28;;
489;SDS011;231;48.120;11.576;2024-01-15T23:05:59;4.38;;;4.10;;
489;SDS011;231;48.120;11.576;2024-01-15T23:08:29;3.97;;;3.78;;
489;SDS011;231;48.120;11.576;2024-01-15T23:10:56;3.33;;;3.13;;
489;SDS011;231;48.120;11.576;2024-01-15T23:13:23;3.05;;;2.85;;
489;SDS011;231;48.120;11.576;2024-01-15T23:15:54;4.38;;;4.10;;
489;SDS011;231;48.120;11.576;2024-01-15T23:18:39;4.97;;;4.68;;
489;SDS011;231;48.120;11.576;2024-01-15T23:21:06;6.18;;;5.88;;
489;SDS011;231;48.120;11.576;2024-01-15T23:23:39;4.90;;;4.60;;
489;SDS011;231;48.120;11.576;2024-01-15T23:26:07;5.22;;;4.93;;
489;SDS011;231;48.120;11.576;2024-01-15T23:28:34;3.20;;;3.00;;
489;SDS011;231;48.120;11.576;2024-01-15T23:31:01;4.80;;;4.50;;
489;SDS011;231;48.120;11.576;2024-01-15T23:33:27;4.72;;;4.45;;
489;SDS011;231;48.120;11.576;2024-01-15T23:35:56;3.30;;;3.10;;
489;SDS011;231;48.120;11.576;2024-01-15T23:38:25;3.30;;;3.10;;
489;SDS011;231;48.120;11.576;2024-01-15T23:40:52;2.90;;;2.70;;
489;SDS011;231;48.120;11.576;2024-01-15T23:43:20;3.65;;;3.45;;
489;SDS011;231;48.120;11.576;2024-01-15T23:45:47;2.92;;;2.72;;
489;SDS011;231;48.120;11.576;2024-01-15T23:48:15;6.65;;;6.25;;
489;SDS011;231;48.120;11.576;2024-01-15T23:50:41;2.50;;;2.30;;
489;SDS011;231;48.120;11.576;2024-01-15T23:53:10;4.50;;;4.22;;
489;SDS011;231;48.120;11.576;2024-01-15T23:55:36;4.20;;;3.95;;
489;SDS011;231;48.120;11.576;2024-01-15T23:58:05;3.53;;;3.33;;
